createdAt,value
2018-07-25T00:00:35.526Z,34.93
2018-07-25T00:03:04.751Z,28.10
2018-07-25T00:05:33.816Z,28.20
2018-07-25T00:08:03.393Z,22.40
2018-07-25T00:10:37.671Z,25.47
2018-07-25T00:13:07.117Z,28.47
2018-07-25T00:15:35.865Z,30.57
2018-07-25T00:18:04.962Z,27.97
2018-07-25T00:20:33.989Z,33.37
2018-07-25T00:23:02.914Z,26.83
2018-07-25T00:25:32.232Z,28.30
2018-07-25T00:28:01.058Z,29.30
2018-07-25T00:30:30.334Z,28.23
2018-07-25T00:32:59.368Z,26.70
2018-07-25T00:35:28.113Z,30.30
2018-07-25T00:37:57.187Z,26.87
2018-07-25T00:40:26.293Z,22.70
2018-07-25T00:42:55.486Z,24.20
2018-07-25T00:45:24.591Z,23.93
2018-07-25T00:47:53.366Z,23.93
2018-07-25T00:50:22.796Z,24.53
2018-07-25T00:52:51.989Z,22.40
2018-07-25T00:55:20.995Z,19.90
2018-07-25T00:57:49.751Z,24.60
2018-07-25T01:00:19.054Z,24.20
2018-07-25T01:02:48.394Z,21.53
2018-07-25T01:05:17.838Z,20.63
2018-07-25T01:07:47.221Z,27.00
2018-07-25T01:10:16.300Z,24.73
2018-07-25T01:12:45.293Z,22.40
2018-07-25T01:15:14.588Z,24.07
2018-07-25T01:17:43.365Z,20.77
2018-07-25T01:20:12.537Z,23.63
2018-07-25T01:22:41.818Z,19.73
2018-07-25T01:25:10.562Z,21.10
2018-07-25T01:27:39.789Z,18.37
2018-07-25T01:30:08.520Z,19.27
2018-07-25T01:32:37.231Z,17.97
2018-07-25T01:35:06.410Z,16.60
2018-07-25T01:37:35.230Z,18.10
2018-07-25T01:40:03.992Z,20.20
2018-07-25T01:42:32.995Z,17.50
2018-07-25T01:45:01.709Z,18.50
2018-07-25T01:47:30.771Z,13.63
2018-07-25T01:49:59.591Z,15.30
2018-07-25T01:52:29.202Z,15.17
2018-07-25T01:54:58.296Z,15.83
2018-07-25T01:57:27.277Z,16.40
2018-07-25T01:59:56.334Z,18.47
2018-07-25T02:02:25.047Z,12.90
2018-07-25T02:04:54.025Z,13.40
2018-07-25T02:07:22.816Z,12.80
2018-07-25T02:09:52.082Z,12.03
2018-07-25T02:12:21.210Z,13.53
2018-07-25T02:14:50.263Z,14.77
2018-07-25T02:17:19.602Z,20.30
2018-07-25T02:19:48.708Z,21.03
2018-07-25T02:22:17.866Z,14.20
2018-07-25T02:24:47.167Z,13.57
2018-07-25T02:27:16.281Z,13.53
2018-07-25T02:29:45.681Z,12.07
2018-07-25T02:32:14.419Z,13.27
2018-07-25T02:34:44.098Z,16.00
2018-07-25T02:37:13.020Z,14.17
2018-07-25T02:39:41.893Z,12.53
2018-07-25T02:42:10.701Z,9.80
2018-07-25T02:44:39.553Z,13.13
2018-07-25T02:47:08.365Z,12.30
2018-07-25T02:49:37.113Z,9.53
2018-07-25T02:52:06.399Z,14.43
2018-07-25T02:54:35.469Z,17.43
2018-07-25T02:57:04.242Z,14.60
2018-07-25T02:59:33.647Z,15.10
2018-07-25T03:02:02.375Z,12.10
2018-07-25T03:04:31.463Z,14.33
2018-07-25T03:07:00.271Z,14.90
2018-07-25T03:09:29.107Z,11.37
2018-07-25T03:11:58.616Z,13.47
2018-07-25T03:14:27.469Z,12.63
2018-07-25T03:16:56.399Z,13.03
2018-07-25T03:19:25.742Z,15.23
2018-07-25T03:21:54.732Z,11.63
2018-07-25T03:24:24.215Z,12.87
2018-07-25T03:26:52.928Z,17.80
2018-07-25T03:29:21.825Z,14.30
2018-07-25T03:31:50.955Z,18.20
2018-07-25T03:34:19.745Z,23.43
2018-07-25T03:36:48.768Z,15.37
2018-07-25T03:39:17.544Z,15.57
2018-07-25T03:41:46.545Z,17.67
2018-07-25T03:44:15.403Z,16.93
2018-07-25T03:46:44.203Z,21.07
2018-07-25T03:49:13.081Z,18.60
2018-07-25T03:51:41.917Z,19.00
2018-07-25T03:54:10.753Z,20.37
2018-07-25T03:56:40.127Z,21.27
2018-07-25T03:59:09.292Z,25.03
2018-07-25T04:01:38.455Z,24.63
2018-07-25T04:04:07.610Z,19.23
2018-07-25T04:06:37.216Z,20.10
2018-07-25T04:09:09.299Z,20.53
2018-07-25T04:11:38.592Z,18.67
2018-07-25T04:14:07.470Z,16.87
2018-07-25T04:16:36.870Z,20.87
2018-07-25T04:19:05.914Z,21.80
2018-07-25T04:21:35.313Z,23.80
2018-07-25T04:24:04.321Z,23.43
2018-07-25T04:26:34.101Z,20.73
2018-07-25T04:29:03.378Z,20.10
2018-07-25T04:31:32.775Z,31.93
2018-07-25T04:34:01.696Z,20.33
2018-07-25T04:36:30.714Z,23.30
2018-07-25T04:38:59.962Z,19.13
2018-07-25T04:41:28.889Z,17.50
2018-07-25T04:43:57.912Z,20.20
2018-07-25T04:46:27.510Z,23.00
2018-07-25T04:48:56.100Z,22.67
2018-07-25T04:51:25.346Z,22.07
2018-07-25T04:53:54.655Z,33.20
2018-07-25T04:56:23.771Z,23.23
2018-07-25T04:58:53.231Z,30.07
2018-07-25T05:01:21.991Z,26.80
2018-07-25T05:03:51.090Z,24.37
2018-07-25T05:06:19.989Z,26.43
2018-07-25T05:08:48.931Z,24.80
2018-07-25T05:11:18.002Z,26.27
2018-07-25T05:13:47.300Z,29.33
2018-07-25T05:16:16.244Z,32.80
2018-07-25T05:18:45.551Z,36.47
2018-07-25T05:21:15.277Z,34.33
2018-07-25T05:23:45.976Z,35.60
2018-07-25T05:26:14.912Z,34.70
2018-07-25T05:28:44.365Z,42.10
2018-07-25T05:31:15.987Z,34.40
2018-07-25T05:33:47.682Z,35.20
2018-07-25T05:36:17.525Z,45.33
2018-07-25T05:38:46.437Z,43.53
2018-07-25T05:41:15.707Z,33.40
2018-07-25T05:43:45.091Z,36.37
2018-07-25T05:46:19.178Z,37.47
2018-07-25T05:48:48.342Z,35.50
2018-07-25T05:51:17.287Z,38.30
2018-07-25T05:53:46.324Z,37.03
2018-07-25T05:56:16.353Z,30.20
2018-07-25T05:58:45.894Z,32.63
2018-07-25T06:01:14.695Z,26.97
2018-07-25T06:03:43.668Z,43.20
2018-07-25T06:06:12.509Z,28.70
2018-07-25T06:08:41.338Z,31.30
2018-07-25T06:11:10.507Z,31.30
2018-07-25T06:13:40.872Z,26.60
2018-07-25T06:16:09.846Z,34.13
2018-07-25T06:18:39.266Z,28.83
2018-07-25T06:21:08.010Z,35.33
2018-07-25T06:23:36.761Z,30.10
2018-07-25T06:26:06.167Z,24.57
2018-07-25T06:28:35.506Z,24.90
2018-07-25T06:31:04.234Z,28.87
2018-07-25T06:33:33.326Z,24.40
2018-07-25T06:36:02.506Z,24.63
2018-07-25T06:38:31.279Z,18.90
2018-07-25T06:41:00.255Z,23.77
2018-07-25T06:43:28.982Z,17.67
2018-07-25T06:45:58.235Z,17.47
2018-07-25T06:48:27.466Z,18.13
2018-07-25T06:50:56.730Z,24.47
2018-07-25T06:53:26.061Z,14.03
2018-07-25T06:55:55.055Z,17.60
2018-07-25T06:58:24.173Z,16.50
2018-07-25T07:00:52.919Z,15.90
2018-07-25T07:03:21.721Z,14.20
2018-07-25T07:05:50.748Z,10.83
2018-07-25T07:08:19.986Z,12.03
2018-07-25T07:10:48.997Z,19.63
2018-07-25T07:13:17.791Z,10.70
2018-07-25T07:15:47.154Z,20.37
2018-07-25T07:18:16.220Z,12.33
2018-07-25T07:20:45.290Z,17.07
2018-07-25T07:23:14.304Z,13.03
2018-07-25T07:25:43.135Z,12.60
2018-07-25T07:28:12.158Z,12.63
2018-07-25T07:30:40.945Z,18.63
2018-07-25T07:33:10.206Z,9.30
2018-07-25T07:35:39.262Z,8.50
2018-07-25T07:38:08.665Z,15.80
2018-07-25T07:40:38.294Z,13.57
2018-07-25T07:43:07.839Z,23.23
2018-07-25T07:45:37.562Z,10.37
2018-07-25T07:48:06.924Z,11.80
2018-07-25T07:50:35.655Z,10.23
2018-07-25T07:53:04.691Z,9.33
2018-07-25T07:55:34.152Z,8.40
2018-07-25T07:58:03.490Z,12.27
2018-07-25T08:00:32.212Z,9.73
2018-07-25T08:03:00.993Z,10.83
2018-07-25T08:05:30.063Z,8.63
2018-07-25T08:07:58.851Z,10.80
2018-07-25T08:10:27.948Z,12.97
2018-07-25T08:12:57.014Z,14.20
2018-07-25T08:15:26.295Z,10.33
2018-07-25T08:17:55.325Z,9.27
2018-07-25T08:20:24.446Z,8.80
2018-07-25T08:22:53.633Z,11.50
2018-07-25T08:25:22.392Z,9.60
2018-07-25T08:27:51.423Z,7.73
2018-07-25T08:30:20.191Z,11.80
2018-07-25T08:32:49.198Z,13.60
2018-07-25T08:35:17.928Z,11.50
2018-07-25T08:37:46.663Z,8.50
2018-07-25T08:40:15.738Z,6.53
2018-07-25T08:42:44.840Z,10.93
2018-07-25T08:45:14.118Z,13.30
2018-07-25T08:47:42.887Z,12.10
2018-07-25T08:50:11.938Z,10.60
2018-07-25T08:52:41.051Z,10.57
2018-07-25T08:55:10.065Z,7.97
2018-07-25T08:57:38.918Z,7.93
2018-07-25T09:00:07.853Z,6.80
2018-07-25T09:02:37.133Z,6.47
2018-07-25T09:05:05.875Z,7.03
2018-07-25T09:07:34.669Z,8.43
2018-07-25T09:10:03.437Z,6.40
2018-07-25T09:12:32.809Z,6.50
2018-07-25T09:15:01.851Z,12.67
2018-07-25T09:17:30.641Z,6.00
2018-07-25T09:19:59.426Z,6.70
2018-07-25T09:22:28.670Z,10.93
2018-07-25T09:24:57.754Z,5.73
2018-07-25T09:27:27.194Z,8.83
2018-07-25T09:29:56.182Z,6.23
2018-07-25T09:32:24.940Z,9.17
2018-07-25T09:34:54.007Z,8.77
2018-07-25T09:37:22.831Z,10.53
2018-07-25T09:39:51.578Z,11.40
2018-07-25T09:42:20.628Z,4.80
2018-07-25T09:44:49.686Z,4.80
2018-07-25T09:47:18.741Z,4.67
2018-07-25T09:49:48.362Z,5.07
2018-07-25T09:52:17.120Z,11.47
2018-07-25T09:54:46.484Z,8.23
2018-07-25T09:57:15.483Z,5.20
2018-07-25T09:59:44.477Z,7.03
2018-07-25T10:02:13.672Z,5.67
2018-07-25T10:04:42.630Z,8.80
2018-07-25T10:07:11.704Z,3.70
2018-07-25T10:09:40.601Z,6.93
2018-07-25T10:12:09.491Z,13.67
2018-07-25T10:14:38.371Z,4.10
2018-07-25T10:17:07.148Z,3.73
2018-07-25T10:19:36.002Z,9.73
2018-07-25T10:22:05.129Z,4.00
2018-07-25T10:24:33.921Z,6.23
2018-07-25T10:27:02.773Z,8.90
2018-07-25T10:29:32.057Z,3.70
2018-07-25T10:32:01.188Z,4.00
2018-07-25T10:34:29.954Z,8.70
2018-07-25T10:36:59.736Z,4.37
2018-07-25T10:44:54.486Z,6.77
2018-07-25T10:47:23.598Z,5.43
2018-07-25T10:49:53.001Z,9.83
2018-07-25T10:52:21.751Z,9.33
2018-07-25T10:54:51.116Z,5.10
2018-07-25T10:57:20.240Z,4.30
2018-07-25T10:59:51.178Z,6.13
2018-07-25T11:02:20.551Z,7.20
2018-07-25T11:04:50.569Z,7.83
2018-07-25T11:07:20.662Z,6.23
2018-07-25T11:09:49.983Z,6.13
2018-07-25T11:12:19.163Z,4.33
2018-07-25T11:14:48.402Z,8.90
2018-07-25T11:17:17.157Z,9.63
2018-07-25T11:19:46.065Z,9.90
2018-07-25T11:22:15.203Z,14.40
2018-07-25T11:24:43.978Z,7.10
2018-07-25T11:27:13.339Z,4.77
2018-07-25T11:29:43.524Z,6.43
2018-07-25T11:32:12.347Z,4.70
2018-07-25T11:34:41.878Z,5.73
2018-07-25T11:37:10.629Z,24.63
2018-07-25T11:39:39.365Z,7.23
2018-07-25T11:42:08.243Z,5.23
2018-07-25T11:44:37.525Z,4.57
2018-07-25T11:47:06.637Z,6.87
2018-07-25T11:49:35.707Z,3.80
2018-07-25T11:52:04.776Z,3.60
2018-07-25T11:54:33.773Z,5.73
2018-07-25T11:57:04.445Z,4.47
2018-07-25T11:59:33.393Z,9.13
2018-07-25T12:02:02.151Z,5.17
2018-07-25T12:04:31.265Z,6.30
2018-07-25T12:09:29.515Z,5.60
2018-07-25T12:11:58.318Z,3.93
2018-07-25T12:14:27.500Z,7.80
2018-07-25T12:16:56.275Z,6.20
2018-07-25T12:19:27.118Z,7.10
2018-07-25T12:21:56.513Z,5.80
2018-07-25T12:24:26.690Z,5.50
2018-07-25T12:26:56.629Z,8.00
2018-07-25T12:29:27.187Z,4.90
2018-07-25T12:31:57.619Z,13.60
2018-07-25T12:34:27.363Z,4.50
2018-07-25T12:36:56.228Z,4.13
2018-07-25T12:39:25.511Z,7.17
2018-07-25T12:41:56.457Z,6.90
2018-07-25T12:44:25.338Z,5.57
2018-07-25T12:46:54.587Z,9.00
2018-07-25T12:49:24.049Z,3.70
2018-07-25T12:51:52.805Z,6.50
2018-07-25T12:54:23.089Z,4.40
2018-07-25T12:56:53.135Z,4.17
2018-07-25T12:59:24.413Z,10.33
2018-07-25T13:01:53.656Z,10.00
2018-07-25T13:04:22.976Z,16.50
2018-07-25T13:06:52.099Z,6.17
2018-07-25T13:09:21.522Z,4.97
2018-07-25T13:11:50.832Z,5.07
2018-07-25T13:14:19.863Z,8.83
2018-07-25T13:16:48.617Z,5.90
2018-07-25T13:19:17.997Z,5.57
2018-07-25T13:21:47.138Z,3.97
2018-07-25T13:24:16.158Z,5.97
2018-07-25T13:26:45.282Z,6.73
2018-07-25T13:29:14.437Z,5.10
2018-07-25T13:31:44.064Z,5.77
2018-07-25T13:34:13.451Z,9.70
2018-07-25T13:36:42.261Z,5.03
2018-07-25T13:39:11.493Z,7.07
2018-07-25T13:41:40.844Z,4.10
2018-07-25T13:44:09.884Z,3.90
2018-07-25T13:46:39.510Z,6.67
2018-07-25T13:49:08.598Z,11.87
2018-07-25T13:51:37.831Z,6.50
2018-07-25T13:54:07.990Z,6.80
2018-07-25T13:56:37.425Z,8.90
2018-07-25T13:59:06.635Z,7.13
2018-07-25T14:01:35.536Z,5.00
2018-07-25T14:04:04.589Z,7.97
2018-07-25T14:06:34.960Z,4.30
2018-07-25T14:09:04.274Z,13.93
2018-07-25T14:11:33.460Z,5.10
2018-07-25T14:14:02.665Z,5.37
2018-07-25T14:16:31.444Z,7.30
2018-07-25T14:19:00.326Z,5.20
2018-07-25T14:21:30.055Z,6.10
2018-07-25T14:23:59.986Z,5.50
2018-07-25T14:26:28.889Z,3.97
2018-07-25T14:28:59.751Z,7.20
2018-07-25T14:31:29.088Z,7.30
2018-07-25T14:33:58.124Z,5.50
2018-07-25T14:36:27.267Z,8.60
2018-07-25T14:38:56.387Z,4.13
2018-07-25T14:41:25.456Z,4.23
2018-07-25T14:43:54.216Z,4.60
2018-07-25T14:46:23.910Z,6.40
2018-07-25T14:48:52.899Z,13.10
2018-07-25T14:51:21.757Z,5.00
2018-07-25T14:53:50.751Z,9.67
2018-07-25T14:56:19.887Z,5.93
2018-07-25T14:58:48.632Z,12.73
2018-07-25T15:01:17.435Z,9.63
2018-07-25T15:03:46.348Z,9.10
2018-07-25T15:06:15.476Z,6.27
2018-07-25T15:08:44.514Z,6.93
2018-07-25T15:11:14.146Z,7.83
2018-07-25T15:13:42.928Z,14.03
2018-07-25T15:16:12.020Z,4.57
2018-07-25T15:18:40.785Z,4.80
2018-07-25T15:21:09.756Z,4.13
2018-07-25T15:23:49.957Z,4.73
2018-07-25T15:26:18.676Z,9.30
2018-07-25T15:28:48.220Z,4.43
2018-07-25T15:31:17.204Z,4.90
2018-07-25T15:33:46.471Z,5.30
2018-07-25T15:36:26.851Z,7.70
2018-07-25T15:38:55.714Z,6.10
2018-07-25T15:41:24.959Z,6.57
2018-07-25T15:43:53.990Z,10.23
2018-07-25T15:46:23.242Z,4.47
2018-07-25T15:48:52.678Z,8.20
2018-07-25T15:51:21.672Z,6.57
2018-07-25T15:53:50.438Z,4.07
2018-07-25T15:56:20.140Z,4.20
2018-07-25T15:58:49.520Z,5.27
2018-07-25T16:01:18.645Z,4.17
2018-07-25T16:03:47.431Z,4.17
2018-07-25T16:06:16.465Z,6.33
2018-07-25T16:08:45.258Z,4.93
2018-07-25T16:11:16.482Z,3.93
2018-07-25T16:13:45.286Z,5.70
2018-07-25T16:16:16.383Z,4.23
2018-07-25T16:18:45.203Z,5.57
2018-07-25T16:21:14.320Z,3.70
2018-07-25T16:23:43.106Z,3.67
2018-07-25T16:26:13.165Z,3.53
2018-07-25T16:28:42.226Z,7.03
2018-07-25T16:31:12.621Z,5.30
2018-07-25T16:33:41.381Z,6.50
2018-07-25T16:36:12.102Z,3.60
2018-07-25T16:38:41.626Z,7.30
2018-07-25T16:41:10.405Z,5.13
2018-07-25T16:43:40.111Z,4.77
2018-07-25T16:46:09.449Z,6.73
2018-07-25T16:48:38.432Z,4.53
2018-07-25T16:51:07.787Z,11.60
2018-07-25T16:53:37.111Z,5.00
2018-07-25T16:56:06.568Z,3.53
2018-07-25T16:58:36.934Z,4.50
2018-07-25T17:01:05.748Z,9.83
2018-07-25T17:03:34.633Z,5.10
2018-07-25T17:06:03.438Z,4.00
2018-07-25T17:08:33.186Z,8.30
2018-07-25T17:11:02.029Z,4.33
2018-07-25T17:13:31.006Z,3.20
2018-07-25T17:15:59.953Z,5.60
2018-07-25T17:18:28.844Z,3.60
2018-07-25T17:20:57.602Z,3.27
2018-07-25T17:23:27.180Z,4.30
2018-07-25T17:25:56.332Z,9.60
2018-07-25T17:28:25.234Z,11.63
2018-07-25T17:30:54.423Z,12.43
2018-07-25T17:33:24.085Z,5.60
2018-07-25T17:35:53.400Z,4.67
2018-07-25T17:41:04.036Z,7.80
2018-07-25T17:43:33.273Z,2.93
2018-07-25T17:46:02.127Z,4.83
2018-07-25T17:48:34.111Z,3.80
2018-07-25T17:51:03.779Z,5.10
2018-07-25T17:53:33.061Z,3.87
2018-07-25T17:56:02.695Z,4.97
2018-07-25T17:58:32.127Z,8.50
2018-07-25T18:01:01.466Z,12.83
2018-07-25T18:03:31.681Z,4.40
2018-07-25T18:06:00.837Z,8.77
2018-07-25T18:08:29.715Z,7.80
2018-07-25T18:10:59.153Z,4.90
2018-07-25T18:13:33.345Z,9.30
2018-07-25T18:16:02.481Z,5.60
2018-07-25T18:18:31.286Z,6.20
2018-07-25T18:21:00.903Z,5.50
2018-07-25T18:23:30.265Z,5.00
2018-07-25T18:25:59.465Z,10.93
2018-07-25T18:28:28.562Z,6.30
2018-07-25T18:30:58.262Z,6.17
2018-07-25T18:33:27.917Z,4.53
2018-07-25T18:35:57.258Z,7.83
2018-07-25T18:38:26.060Z,14.50
2018-07-25T18:40:54.858Z,13.77
2018-07-25T18:43:24.161Z,7.33
2018-07-25T18:45:53.344Z,7.50
2018-07-25T18:48:22.103Z,8.30
2018-07-25T18:50:52.234Z,3.80
2018-07-25T18:53:29.474Z,7.13
2018-07-25T18:55:58.825Z,10.43
2018-07-25T18:58:27.995Z,7.63
2018-07-25T19:00:57.032Z,5.20
2018-07-25T19:03:25.833Z,3.23
2018-07-25T19:05:54.904Z,5.07
2018-07-25T19:08:23.915Z,5.10
2018-07-25T19:10:53.618Z,10.73
2018-07-25T19:13:27.984Z,11.77
2018-07-25T19:18:36.586Z,6.23
2018-07-25T19:21:09.209Z,2.93
2018-07-25T19:23:38.874Z,7.97
2018-07-25T19:26:07.591Z,5.67
2018-07-25T19:28:36.553Z,7.10
2018-07-25T19:31:10.656Z,19.77
2018-07-25T19:33:43.658Z,6.80
2018-07-25T19:36:12.727Z,9.13
2018-07-25T19:38:41.686Z,5.90
2018-07-25T19:41:11.121Z,12.40
2018-07-25T19:43:39.928Z,6.23
2018-07-25T19:46:09.141Z,8.13
2018-07-25T19:48:38.166Z,9.87
2018-07-25T19:51:07.259Z,6.13
2018-07-25T19:53:36.252Z,8.97
2018-07-25T19:56:05.036Z,12.00
2018-07-25T19:58:33.824Z,10.03
2018-07-25T20:01:02.600Z,6.00
2018-07-25T20:03:32.700Z,7.80
2018-07-25T20:06:01.815Z,14.93
2018-07-25T20:08:30.943Z,9.80
2018-07-25T20:11:00.272Z,10.63
2018-07-25T20:13:31.499Z,6.90
2018-07-25T20:16:01.693Z,8.63
2018-07-25T20:18:31.694Z,9.03
2018-07-25T20:21:00.552Z,10.03
2018-07-25T20:23:29.678Z,7.13
2018-07-25T20:25:58.659Z,8.00
2018-07-25T20:28:28.014Z,6.93
2018-07-25T20:30:56.996Z,6.90
2018-07-25T20:33:25.818Z,6.43
2018-07-25T20:35:55.185Z,10.60
2018-07-25T20:38:24.421Z,13.87
2018-07-25T20:40:53.200Z,8.90
2018-07-25T20:43:22.960Z,7.20
2018-07-25T20:45:51.686Z,14.67
2018-07-25T20:48:21.847Z,15.70
2018-07-25T20:50:52.205Z,11.43
2018-07-25T20:53:21.231Z,13.77
2018-07-25T20:55:50.466Z,4.77
2018-07-25T20:58:19.265Z,6.80
2018-07-25T21:00:48.114Z,8.80
2018-07-25T21:03:16.873Z,12.10
2018-07-25T21:05:46.181Z,11.40
2018-07-25T21:08:15.157Z,8.93
2018-07-25T21:10:44.312Z,13.40
2018-07-25T21:13:13.149Z,6.40
2018-07-25T21:15:43.389Z,6.60
2018-07-25T21:18:12.202Z,10.60
2018-07-25T21:20:40.979Z,8.70
2018-07-25T21:23:09.724Z,14.57
2018-07-25T21:25:38.796Z,9.77
2018-07-25T21:28:07.880Z,7.40
2018-07-25T21:30:36.626Z,10.90
2018-07-25T21:33:05.941Z,8.23
2018-07-25T21:35:35.133Z,8.17
2018-07-25T21:38:05.185Z,9.50
2018-07-25T21:40:33.903Z,8.67
2018-07-25T21:43:02.673Z,9.53
2018-07-25T21:45:31.470Z,9.73
2018-07-25T21:48:00.906Z,12.97
2018-07-25T21:50:29.633Z,17.40
2018-07-25T21:52:58.727Z,10.93
2018-07-25T21:55:28.033Z,12.13
2018-07-25T21:57:57.111Z,13.63
2018-07-25T22:00:26.463Z,15.13
2018-07-25T22:02:55.631Z,10.80
2018-07-25T22:05:25.027Z,13.40
2018-07-25T22:07:54.121Z,10.73
2018-07-25T22:10:26.393Z,11.90
2018-07-25T22:12:56.029Z,15.63
2018-07-25T22:15:25.349Z,15.47
2018-07-25T22:17:54.455Z,10.67
2018-07-25T22:20:23.799Z,12.13
2018-07-25T22:22:53.743Z,13.63
2018-07-25T22:25:22.525Z,12.70
2018-07-25T22:27:51.492Z,11.07
2018-07-25T22:30:20.259Z,13.23
2018-07-25T22:32:49.343Z,12.57
2018-07-25T22:35:18.427Z,9.90
2018-07-25T22:37:47.174Z,10.10
2018-07-25T22:40:16.006Z,16.10
2018-07-25T22:42:45.684Z,11.13
2018-07-25T22:45:15.443Z,16.43
2018-07-25T22:47:45.455Z,15.60
2018-07-25T22:50:15.152Z,14.57
2018-07-25T22:52:44.794Z,14.10
2018-07-25T22:55:14.412Z,10.17
2018-07-25T22:57:43.568Z,11.30
2018-07-25T23:00:13.330Z,12.03
2018-07-25T23:02:42.061Z,17.87
2018-07-25T23:05:10.792Z,19.47
2018-07-25T23:07:39.554Z,16.10
2018-07-25T23:10:08.356Z,12.93
2018-07-25T23:12:37.448Z,14.40
2018-07-25T23:15:06.638Z,20.63
2018-07-25T23:17:35.881Z,17.77
2018-07-25T23:20:04.900Z,17.60
2018-07-25T23:22:44.391Z,25.87
2018-07-25T23:25:13.462Z,16.23
2018-07-25T23:27:42.759Z,17.83
2018-07-25T23:30:11.899Z,18.90
2018-07-25T23:32:41.905Z,17.93
2018-07-25T23:35:11.352Z,27.40
2018-07-25T23:37:40.477Z,20.27
2018-07-25T23:40:09.327Z,16.30
2018-07-25T23:42:38.737Z,19.40
2018-07-25T23:45:07.578Z,32.27
2018-07-25T23:47:36.350Z,16.10
2018-07-25T23:50:05.327Z,23.17
2018-07-25T23:52:34.616Z,19.50
2018-07-25T23:55:03.378Z,18.40
2018-07-25T23:57:32.123Z,21.30
